createdAt,value
2023-09-10T00:01:28.216Z,15.97
2023-09-10T00:04:33.527Z,15.98
2023-09-10T00:07:35.953Z,15.97
2023-09-10T00:10:39.748Z,15.95
2023-09-10T00:13:42.176Z,15.92
2023-09-10T00:16:44.804Z,15.91
2023-09-10T00:19:47.181Z,15.92
2023-09-10T00:22:49.929Z,15.93
2023-09-10T00:25:55.243Z,15.69
2023-09-10T00:28:57.907Z,16.01
2023-09-10T00:32:00.533Z,15.96
2023-09-10T00:35:04.649Z,15.84
2023-09-10T00:38:07.143Z,15.78
2023-09-10T00:41:09.941Z,15.73
2023-09-10T00:44:12.348Z,15.78
2023-09-10T00:47:15.608Z,15.71
2023-09-10T00:50:18.707Z,15.69
2023-09-10T00:53:22.573Z,15.65
2023-09-10T00:56:25.611Z,15.63
2023-09-10T00:59:29.678Z,15.60
2023-09-10T01:02:32.430Z,15.61
2023-09-10T01:05:36.813Z,15.61
2023-09-10T01:08:39.422Z,15.48
2023-09-10T01:11:44.834Z,15.50
2023-09-10T01:15:17.275Z,15.48
2023-09-10T01:18:30.361Z,15.44
2023-09-10T01:21:42.862Z,15.47
2023-09-10T01:24:49.543Z,15.39
2023-09-10T01:27:51.902Z,15.38
2023-09-10T01:30:54.728Z,15.31
2023-09-10T01:33:59.958Z,15.31
2023-09-10T01:37:27.756Z,15.23
2023-09-10T01:40:41.357Z,15.16
2023-09-10T01:43:45.046Z,15.08
2023-09-10T01:46:48.278Z,15.03
2023-09-10T01:49:51.110Z,14.71
2023-09-10T01:52:53.519Z,14.93
2023-09-10T01:55:56.734Z,14.95
2023-09-10T01:58:59.144Z,14.96
2023-09-10T02:02:01.915Z,14.95
2023-09-10T02:05:05.345Z,14.98
2023-09-10T02:08:07.862Z,14.97
2023-09-10T02:11:10.640Z,14.84
2023-09-10T02:14:13.094Z,14.86
2023-09-10T02:17:16.089Z,14.78
2023-09-10T02:20:18.901Z,14.73
2023-09-10T02:23:22.025Z,14.70
2023-09-10T02:26:25.204Z,14.71
2023-09-10T02:29:27.537Z,14.60
2023-09-10T02:32:30.401Z,14.56
2023-09-10T02:35:32.886Z,14.49
2023-09-10T02:38:36.225Z,14.50
2023-09-10T02:41:38.946Z,14.46
2023-09-10T02:44:41.657Z,14.43
2023-09-10T02:47:44.148Z,14.37
2023-09-10T02:50:46.858Z,14.39
2023-09-10T02:53:50.036Z,14.35
2023-09-10T02:56:52.878Z,14.32
2023-09-10T02:59:55.334Z,14.30
2023-09-10T03:02:58.714Z,14.29
2023-09-10T03:06:01.767Z,14.24
2023-09-10T03:09:04.661Z,14.24
2023-09-10T03:12:26.648Z,14.21
2023-09-10T03:15:29.704Z,14.19
2023-09-10T03:18:32.552Z,14.17
2023-09-10T03:21:37.522Z,14.15
2023-09-10T03:24:40.219Z,14.18
2023-09-10T03:27:42.914Z,14.16
2023-09-10T03:30:45.368Z,14.17
2023-09-10T03:33:49.404Z,14.17
2023-09-10T03:36:52.181Z,14.18
2023-09-10T03:39:54.887Z,14.20
2023-09-10T03:42:57.399Z,14.17
2023-09-10T03:46:00.039Z,14.16
2023-09-10T03:49:02.801Z,14.13
2023-09-10T03:52:19.808Z,14.15
2023-09-10T03:55:22.304Z,14.11
2023-09-10T03:58:25.275Z,14.11
2023-09-10T04:01:27.678Z,14.13
2023-09-10T04:04:30.329Z,14.10
2023-09-10T04:07:33.254Z,14.10
2023-09-10T04:10:35.903Z,14.07
2023-09-10T04:13:38.331Z,14.07
2023-09-10T04:16:41.084Z,14.03
2023-09-10T04:19:44.321Z,14.09
2023-09-10T04:22:48.014Z,14.14
2023-09-10T04:25:53.314Z,14.14
2023-09-10T04:28:55.990Z,14.17
2023-09-10T04:31:58.499Z,14.21
2023-09-10T04:35:01.182Z,14.23
2023-09-10T04:38:03.818Z,14.24
2023-09-10T04:41:06.526Z,14.25
2023-09-10T04:44:08.903Z,14.26
2023-09-10T04:47:11.903Z,14.29
2023-09-10T04:50:15.034Z,14.31
2023-09-10T04:53:18.826Z,14.38
2023-09-10T04:56:21.329Z,14.42
2023-09-10T04:59:24.244Z,14.43
2023-09-10T05:02:26.832Z,14.50
2023-09-10T05:05:29.641Z,14.57
2023-09-10T05:08:32.280Z,14.65
2023-09-10T05:11:35.218Z,14.72
2023-09-10T05:14:38.274Z,14.80
2023-09-10T05:17:41.129Z,14.90
2023-09-10T05:20:43.571Z,15.02
2023-09-10T05:23:46.261Z,15.11
2023-09-10T05:26:48.720Z,15.24
2023-09-10T05:29:51.782Z,15.36
2023-09-10T05:32:54.568Z,15.51
2023-09-10T05:35:57.920Z,16.00
2023-09-10T05:39:00.744Z,17.07
2023-09-10T05:42:04.090Z,17.17
2023-09-10T05:45:07.349Z,16.79
2023-09-10T05:48:10.025Z,16.54
2023-09-10T05:51:12.452Z,16.59
2023-09-10T05:54:17.683Z,16.58
2023-09-10T05:57:20.643Z,16.61
2023-09-10T06:00:23.406Z,16.71
2023-09-10T06:03:26.459Z,16.73
2023-09-10T06:06:29.095Z,16.88
2023-09-10T06:09:32.466Z,17.01
2023-09-10T06:12:34.899Z,17.04
2023-09-10T06:15:39.584Z,17.13
2023-09-10T06:18:41.998Z,17.29
2023-09-10T06:21:44.730Z,17.40
2023-09-10T06:24:47.094Z,17.49
2023-09-10T06:27:49.934Z,17.56
2023-09-10T06:30:52.861Z,17.67
2023-09-10T06:33:55.913Z,17.73
2023-09-10T06:36:59.769Z,17.85
2023-09-10T06:40:02.607Z,18.02
2023-09-10T06:43:06.735Z,18.14
2023-09-10T06:46:10.602Z,18.35
2023-09-10T06:49:13.057Z,18.52
2023-09-10T06:52:15.918Z,18.80
2023-09-10T06:55:18.345Z,18.98
2023-09-10T06:58:21.636Z,19.21
2023-09-10T07:01:24.038Z,19.40
2023-09-10T07:04:26.712Z,19.44
2023-09-10T07:07:29.217Z,19.93
2023-09-10T07:10:31.904Z,20.68
2023-09-10T07:13:35.367Z,21.61
2023-09-10T07:16:38.042Z,22.60
2023-09-10T07:19:41.676Z,23.58
2023-09-10T07:22:44.453Z,24.18
2023-09-10T07:25:46.962Z,24.41
2023-09-10T07:28:49.688Z,25.09
2023-09-10T07:31:52.074Z,25.89
2023-09-10T07:34:54.893Z,25.95
2023-09-10T07:37:57.359Z,26.40
2023-09-10T07:41:00.049Z,26.53
2023-09-10T07:44:05.555Z,26.20
2023-09-10T07:47:10.124Z,27.23
2023-09-10T07:50:12.592Z,27.56
2023-09-10T07:53:15.263Z,28.06
2023-09-10T07:56:17.726Z,28.23
2023-09-10T07:59:20.389Z,27.98
2023-09-10T08:02:28.098Z,28.46
2023-09-10T08:05:32.377Z,29.14
2023-09-10T08:08:34.754Z,29.10
2023-09-10T08:11:37.854Z,29.05
2023-09-10T08:14:41.422Z,30.01
2023-09-10T08:17:44.173Z,30.10
2023-09-10T08:20:46.605Z,29.97
2023-09-10T08:23:50.016Z,29.91
2023-09-10T08:26:52.866Z,30.28
2023-09-10T08:29:55.569Z,30.51
2023-09-10T08:32:58.129Z,30.86
2023-09-10T08:36:00.762Z,30.38
2023-09-10T08:39:03.366Z,30.44
2023-09-10T08:42:20.594Z,31.49
2023-09-10T08:45:24.170Z,31.50
2023-09-10T08:48:27.789Z,30.64
2023-09-10T08:51:30.950Z,30.99
2023-09-10T08:54:33.672Z,32.60
2023-09-10T08:57:40.596Z,31.55
2023-09-10T09:00:44.994Z,33.45
2023-09-10T09:03:49.140Z,31.57
2023-09-10T09:06:54.571Z,33.77
2023-09-10T09:09:59.573Z,32.99
2023-09-10T09:13:07.274Z,33.85
2023-09-10T09:16:09.727Z,33.29
2023-09-10T09:19:15.711Z,34.18
2023-09-10T09:22:21.240Z,34.00
2023-09-10T09:25:24.222Z,33.93
2023-09-10T09:28:27.718Z,34.12
2023-09-10T09:31:30.570Z,34.38
2023-09-10T09:34:33.952Z,34.47
2023-09-10T09:37:37.538Z,34.95
2023-09-10T09:40:39.898Z,34.61
2023-09-10T09:43:42.696Z,34.43
2023-09-10T09:46:46.453Z,34.51
2023-09-10T09:49:49.558Z,35.23
2023-09-10T09:52:53.049Z,34.48
2023-09-10T09:55:57.084Z,34.37
2023-09-10T09:59:03.890Z,35.55
2023-09-10T10:02:12.011Z,34.86
2023-09-10T10:05:15.373Z,36.28
2023-09-10T10:08:18.535Z,36.23
2023-09-10T10:11:30.706Z,35.52
2023-09-10T10:14:33.789Z,36.04
2023-09-10T10:17:36.822Z,36.05
2023-09-10T10:20:39.503Z,36.08
2023-09-10T10:23:43.200Z,38.07
2023-09-10T10:26:46.032Z,35.98
2023-09-10T10:29:48.763Z,36.35
2023-09-10T10:32:51.958Z,37.88
2023-09-10T10:36:25.673Z,35.66
2023-09-10T10:39:34.608Z,39.15
2023-09-10T10:43:09.256Z,39.84
2023-09-10T10:46:12.915Z,38.29
2023-09-10T10:49:15.663Z,37.90
2023-09-10T10:52:21.947Z,38.58
2023-09-10T10:55:25.356Z,38.88
2023-09-10T10:58:29.520Z,35.58
2023-09-10T11:01:32.213Z,38.42
2023-09-10T11:04:34.715Z,38.58
2023-09-10T11:07:40.264Z,39.07
2023-09-10T11:10:43.039Z,38.30
2023-09-10T11:14:06.533Z,38.40
2023-09-10T11:17:25.579Z,36.82
2023-09-10T11:20:51.968Z,38.99
2023-09-10T11:23:54.234Z,39.22
2023-09-10T11:27:20.969Z,36.40
2023-09-10T11:30:24.479Z,39.20
2023-09-10T11:33:31.971Z,38.50
2023-09-10T11:36:35.441Z,38.88
2023-09-10T11:39:38.534Z,38.34
2023-09-10T11:42:44.037Z,39.42
2023-09-10T11:45:46.660Z,38.69
2023-09-10T11:48:49.078Z,36.83
2023-09-10T11:51:54.465Z,37.98
2023-09-10T11:54:58.325Z,38.13
2023-09-10T11:58:00.947Z,38.19
2023-09-10T12:01:04.981Z,37.45
2023-09-10T12:04:07.890Z,37.73
2023-09-10T12:07:10.321Z,37.44
2023-09-10T12:10:15.775Z,37.15
2023-09-10T12:13:18.190Z,36.87
2023-09-10T12:16:20.984Z,34.58
2023-09-10T12:19:23.456Z,33.08
2023-09-10T12:22:26.118Z,33.34
2023-09-10T12:25:29.030Z,33.07
2023-09-10T12:28:32.892Z,32.17
2023-09-10T12:31:35.292Z,32.25
2023-09-10T12:34:38.540Z,31.70
2023-09-10T12:37:54.409Z,31.00
2023-09-10T12:40:57.368Z,30.75
2023-09-10T12:43:59.961Z,30.91
2023-09-10T12:47:04.010Z,30.55
2023-09-10T12:50:07.582Z,30.75
2023-09-10T12:53:10.680Z,30.60
2023-09-10T12:56:13.119Z,30.49
2023-09-10T12:59:15.866Z,30.33
2023-09-10T13:02:18.361Z,30.02
2023-09-10T13:05:21.065Z,29.98
2023-09-10T13:08:23.566Z,29.73
2023-09-10T13:11:26.279Z,29.74
2023-09-10T13:14:29.157Z,30.04
2023-09-10T13:17:32.372Z,30.07
2023-09-10T13:20:34.986Z,29.63
2023-09-10T13:23:37.677Z,29.54
2023-09-10T13:26:40.049Z,29.53
2023-09-10T13:29:42.737Z,29.67
2023-09-10T13:32:45.190Z,29.63
2023-09-10T13:35:48.043Z,29.48
2023-09-10T13:38:51.152Z,29.39
2023-09-10T13:41:53.783Z,29.52
2023-09-10T13:44:56.145Z,29.35
2023-09-10T13:47:58.837Z,29.32
2023-09-10T13:51:01.287Z,29.31
2023-09-10T13:54:04.032Z,29.38
2023-09-10T13:57:07.950Z,29.44
2023-09-10T14:00:11.883Z,29.42
2023-09-10T14:03:14.752Z,29.36
2023-09-10T14:06:17.351Z,29.20
2023-09-10T14:09:20.323Z,29.20
2023-09-10T14:12:22.635Z,29.23
2023-09-10T14:15:25.313Z,29.09
2023-09-10T14:18:27.686Z,29.18
2023-09-10T14:21:31.341Z,29.04
2023-09-10T14:24:33.678Z,29.16
2023-09-10T14:27:36.303Z,29.03
2023-09-10T14:30:38.814Z,29.02
2023-09-10T14:33:43.272Z,29.13
2023-09-10T14:36:46.094Z,28.99
2023-09-10T14:39:48.799Z,28.94
2023-09-10T14:42:51.335Z,28.78
2023-09-10T14:45:53.978Z,28.83
2023-09-10T14:48:57.766Z,28.72
2023-09-10T14:52:00.492Z,28.82
2023-09-10T14:55:02.849Z,28.77
2023-09-10T14:58:07.068Z,28.77
2023-09-10T15:01:09.535Z,28.81
2023-09-10T15:04:12.444Z,28.71
2023-09-10T15:07:14.930Z,28.53
2023-09-10T15:10:17.581Z,28.37
2023-09-10T15:13:19.970Z,28.29
2023-09-10T15:16:22.656Z,28.20
2023-09-10T15:19:26.287Z,28.04
2023-09-10T15:22:29.130Z,28.00
2023-09-10T15:25:31.476Z,27.95
2023-09-10T15:28:34.152Z,28.08
2023-09-10T15:31:37.538Z,28.16
2023-09-10T15:34:40.293Z,28.14
2023-09-10T15:37:42.629Z,28.12
2023-09-10T15:40:45.317Z,28.04
2023-09-10T15:43:47.723Z,27.93
2023-09-10T15:46:50.384Z,27.88
2023-09-10T15:49:52.761Z,27.82
2023-09-10T15:52:55.744Z,27.70
2023-09-10T15:55:58.138Z,27.51
2023-09-10T15:59:00.823Z,27.55
2023-09-10T16:02:15.362Z,27.31
2023-09-10T16:05:18.185Z,27.25
2023-09-10T16:08:20.559Z,27.16
2023-09-10T16:11:23.183Z,27.07
2023-09-10T16:14:25.629Z,26.88
2023-09-10T16:17:28.550Z,26.73
2023-09-10T16:20:30.952Z,26.78
2023-09-10T16:23:35.019Z,26.53
2023-09-10T16:26:37.546Z,26.56
2023-09-10T16:29:40.733Z,26.62
2023-09-10T16:32:43.272Z,26.42
2023-09-10T16:35:45.986Z,26.32
2023-09-10T16:38:48.362Z,26.19
2023-09-10T16:41:50.966Z,26.07
2023-09-10T16:44:53.427Z,25.98
2023-09-10T16:47:56.170Z,25.95
2023-09-10T16:50:58.618Z,25.78
2023-09-10T16:54:04.750Z,25.58
2023-09-10T16:57:07.247Z,25.38
2023-09-10T17:00:12.817Z,25.01
2023-09-10T17:03:16.482Z,25.10
2023-09-10T17:06:19.949Z,24.94
2023-09-10T17:09:22.364Z,24.67
2023-09-10T17:12:25.510Z,24.61
2023-09-10T17:15:27.900Z,24.47
2023-09-10T17:18:30.580Z,24.22
2023-09-10T17:21:32.988Z,24.03
2023-09-10T17:24:35.723Z,23.91
2023-09-10T17:27:38.335Z,23.88
2023-09-10T17:30:41.053Z,23.84
2023-09-10T17:33:43.535Z,23.82
2023-09-10T17:36:46.162Z,23.74
2023-09-10T17:39:48.498Z,23.75
2023-09-10T17:42:51.150Z,23.69
2023-09-10T17:45:53.549Z,23.46
2023-09-10T17:48:56.179Z,23.54
2023-09-10T17:51:58.907Z,23.42
2023-09-10T17:55:05.398Z,23.37
2023-09-10T17:58:08.277Z,23.30
2023-09-10T18:01:11.166Z,23.22
2023-09-10T18:04:14.053Z,23.17
2023-09-10T18:07:16.451Z,23.10
2023-09-10T18:10:19.092Z,22.98
2023-09-10T18:13:21.452Z,22.90
2023-09-10T18:16:24.821Z,22.80
2023-09-10T18:19:27.224Z,22.72
2023-09-10T18:22:31.178Z,22.64
2023-09-10T18:25:33.964Z,22.63
2023-09-10T18:28:36.583Z,22.55
2023-09-10T18:31:38.975Z,22.57
2023-09-10T18:34:41.623Z,22.50
2023-09-10T18:37:44.034Z,22.43
2023-09-10T18:40:46.743Z,22.39
2023-09-10T18:43:49.440Z,22.31
2023-09-10T18:46:56.272Z,22.24
2023-09-10T18:49:58.952Z,22.13
2023-09-10T18:53:02.048Z,22.11
2023-09-10T18:56:04.770Z,21.96
2023-09-10T18:59:07.788Z,21.90
2023-09-10T19:02:10.256Z,21.84
2023-09-10T19:05:13.540Z,21.76
2023-09-10T19:08:15.947Z,21.71
2023-09-10T19:11:18.613Z,21.67
2023-09-10T19:14:21.090Z,21.64
2023-09-10T19:17:23.841Z,21.58
2023-09-10T19:20:26.250Z,21.57
2023-09-10T19:23:28.976Z,21.47
2023-09-10T19:26:32.001Z,21.42
2023-09-10T19:29:34.728Z,21.30
2023-09-10T19:32:37.274Z,21.25
2023-09-10T19:35:40.208Z,21.21
2023-09-10T19:38:42.874Z,21.17
2023-09-10T19:41:45.712Z,21.10
2023-09-10T19:44:48.205Z,21.07
2023-09-10T19:47:51.355Z,21.00
2023-09-10T19:51:12.002Z,20.68
2023-09-10T19:54:14.685Z,20.92
2023-09-10T19:57:17.252Z,20.92
2023-09-10T20:00:20.176Z,20.82
2023-09-10T20:03:23.003Z,20.52
2023-09-10T20:06:25.726Z,20.24
2023-09-10T20:09:30.062Z,20.04
2023-09-10T20:12:32.635Z,19.84
2023-09-10T20:15:35.428Z,19.67
2023-09-10T20:18:37.842Z,19.49
2023-09-10T20:21:40.495Z,19.39
2023-09-10T20:24:42.935Z,19.27
2023-09-10T20:27:45.772Z,19.17
2023-09-10T20:30:48.163Z,19.09
2023-09-10T20:33:51.753Z,19.02
2023-09-10T20:36:54.116Z,18.96
2023-09-10T20:39:58.230Z,18.91
2023-09-10T20:43:02.773Z,18.89
2023-09-10T20:46:05.525Z,18.95
2023-09-10T20:49:07.901Z,19.08
2023-09-10T20:52:10.611Z,19.10
2023-09-10T20:55:12.989Z,19.03
2023-09-10T20:58:15.693Z,18.91
2023-09-10T21:01:18.606Z,18.80
2023-09-10T21:04:21.593Z,18.76
2023-09-10T21:07:24.205Z,18.66
2023-09-10T21:10:26.960Z,18.56
2023-09-10T21:13:29.338Z,18.49
2023-09-10T21:16:33.779Z,18.42
2023-09-10T21:19:36.513Z,18.29
2023-09-10T21:22:39.169Z,18.25
2023-09-10T21:25:42.773Z,18.24
2023-09-10T21:28:46.199Z,18.27
2023-09-10T21:31:48.645Z,18.30
2023-09-10T21:34:51.315Z,18.34
2023-09-10T21:37:53.701Z,18.22
2023-09-10T21:40:56.328Z,18.11
2023-09-10T21:43:58.676Z,18.08
2023-09-10T21:47:01.358Z,17.98
2023-09-10T21:50:03.770Z,17.92
2023-09-10T21:53:07.309Z,17.82
2023-09-10T21:56:09.809Z,17.70
2023-09-10T21:59:12.679Z,17.69
2023-09-10T22:02:15.127Z,17.71
2023-09-10T22:05:17.848Z,17.67
2023-09-10T22:08:21.024Z,17.66
2023-09-10T22:11:23.740Z,17.60
2023-09-10T22:14:26.425Z,17.57
2023-09-10T22:17:29.193Z,17.54
2023-09-10T22:20:31.606Z,17.53
2023-09-10T22:23:34.303Z,17.45
2023-09-10T22:26:36.678Z,17.40
2023-09-10T22:29:39.500Z,17.36
2023-09-10T22:32:41.969Z,17.31
2023-09-10T22:35:44.805Z,17.28
2023-09-10T22:38:47.323Z,17.30
2023-09-10T22:41:50.338Z,17.31
2023-09-10T22:44:54.014Z,17.20
2023-09-10T22:47:56.775Z,17.11
2023-09-10T22:50:59.208Z,17.03
2023-09-10T22:54:02.434Z,16.69
2023-09-10T22:57:05.059Z,16.84
2023-09-10T23:00:09.259Z,16.73
2023-09-10T23:03:11.702Z,16.59
2023-09-10T23:06:14.482Z,16.58
2023-09-10T23:09:16.887Z,16.49
2023-09-10T23:12:20.670Z,16.39
2023-09-10T23:15:23.025Z,16.36
2023-09-10T23:18:25.794Z,16.29
2023-09-10T23:21:28.245Z,16.35
2023-09-10T23:24:30.945Z,16.36
2023-09-10T23:27:33.270Z,16.36
2023-09-10T23:30:35.960Z,16.08
2023-09-10T23:33:38.826Z,16.36
2023-09-10T23:36:41.836Z,16.46
2023-09-10T23:39:44.510Z,16.50
2023-09-10T23:42:47.384Z,16.46
2023-09-10T23:45:49.943Z,16.49
2023-09-10T23:48:52.563Z,16.54
2023-09-10T23:51:54.909Z,16.61
2023-09-10T23:54:57.854Z,16.59
2023-09-10T23:58:00.180Z,16.48
